createdAt,value
2022-12-01T00:02:32.948Z,38.10
2022-12-01T00:07:44.341Z,33.37
2022-12-01T00:10:43.697Z,36.03
2022-12-01T00:13:13.895Z,36.77
2022-12-01T00:15:40.962Z,41.03
2022-12-01T00:18:09.938Z,37.10
2022-12-01T00:23:47.305Z,37.10
2022-12-01T00:26:22.956Z,40.67
2022-12-01T00:28:52.187Z,36.97
2022-12-01T00:31:19.840Z,43.30
2022-12-01T00:33:46.971Z,41.53
2022-12-01T00:36:14.281Z,39.63
2022-12-01T00:39:08.730Z,37.43
2022-12-01T00:41:53.665Z,43.43
2022-12-01T00:44:24.110Z,39.50
2022-12-01T00:49:47.152Z,34.33
2022-12-01T00:52:16.276Z,44.30
2022-12-01T00:54:52.671Z,33.03
2022-12-01T00:57:38.589Z,35.77
2022-12-01T01:00:24.300Z,34.87
2022-12-01T01:03:03.868Z,34.93
2022-12-01T01:16:52.613Z,33.23
2022-12-01T01:19:19.817Z,37.83
2022-12-01T01:21:47.125Z,35.83
2022-12-01T01:24:20.464Z,40.97
2022-12-01T01:26:47.534Z,37.90
2022-12-01T01:29:17.734Z,42.17
2022-12-01T01:31:44.692Z,40.87
2022-12-01T01:34:11.894Z,37.97
2022-12-01T01:36:42.470Z,37.83
2022-12-01T01:39:16.063Z,38.50
2022-12-01T01:41:49.277Z,37.73
2022-12-01T01:44:56.156Z,37.57
2022-12-01T01:48:13.232Z,36.83
2022-12-01T01:50:40.611Z,36.73
2022-12-01T01:53:19.744Z,36.83
2022-12-01T01:55:53.073Z,34.47
2022-12-01T01:59:19.344Z,36.10
2022-12-01T02:05:27.280Z,27.30
2022-12-01T02:07:58.800Z,22.83
2022-12-01T02:14:46.383Z,28.13
2022-12-01T02:17:44.813Z,34.03
2022-12-01T02:20:50.986Z,31.63
2022-12-01T02:23:53.497Z,30.90
2022-12-01T02:31:22.269Z,28.67
2022-12-01T02:40:14.405Z,25.47
2022-12-01T02:43:13.804Z,26.00
2022-12-01T03:02:14.570Z,16.50
2022-12-01T03:05:39.359Z,17.00
2022-12-01T03:08:32.782Z,21.27
2022-12-01T03:11:26.029Z,19.07
2022-12-01T03:14:21.825Z,20.20
2022-12-01T03:17:21.125Z,19.60
2022-12-01T03:20:00.548Z,17.90
2022-12-01T03:22:49.492Z,18.73
2022-12-01T03:25:18.233Z,17.37
2022-12-01T03:30:28.478Z,25.17
2022-12-01T03:33:24.506Z,19.47
2022-12-01T03:36:40.273Z,17.43
2022-12-01T03:39:12.652Z,19.20
2022-12-01T03:41:48.758Z,18.77
2022-12-01T03:44:33.635Z,24.20
2022-12-01T03:49:44.081Z,18.80
2022-12-01T03:52:34.905Z,20.97
2022-12-01T03:55:09.591Z,15.40
2022-12-01T03:57:44.745Z,17.53
2022-12-01T04:00:17.182Z,20.40
2022-12-01T04:02:57.705Z,18.23
2022-12-01T04:05:39.162Z,16.83
2022-12-01T04:08:41.794Z,18.83
2022-12-01T04:14:30.136Z,17.77
2022-12-01T04:19:50.136Z,25.60
2022-12-01T04:22:17.544Z,21.07
2022-12-01T04:24:44.711Z,20.47
2022-12-01T04:27:20.201Z,21.57
2022-12-01T04:29:47.809Z,18.93
2022-12-01T04:32:18.511Z,20.07
2022-12-01T04:34:45.748Z,19.23
2022-12-01T04:37:12.967Z,22.23
2022-12-01T04:39:42.226Z,20.77
2022-12-01T04:42:15.846Z,20.73
2022-12-01T04:44:43.494Z,22.33
2022-12-01T04:47:11.957Z,21.33
2022-12-01T04:49:39.218Z,22.97
2022-12-01T04:52:18.825Z,23.67
2022-12-01T04:54:53.500Z,21.13
2022-12-01T04:57:20.746Z,21.70
2022-12-01T05:02:56.743Z,22.47
2022-12-01T05:08:29.150Z,21.83
2022-12-01T05:11:12.304Z,22.33
2022-12-01T05:14:25.809Z,23.33
2022-12-01T05:16:50.904Z,20.37
2022-12-01T05:19:44.954Z,21.80
2022-12-01T05:22:31.484Z,21.20
2022-12-01T05:25:48.400Z,19.10
2022-12-01T05:28:15.582Z,22.27
2022-12-01T05:30:51.109Z,20.63
2022-12-01T05:33:39.811Z,20.57
2022-12-01T05:42:31.220Z,21.53
2022-12-01T05:45:10.920Z,19.87
2022-12-01T05:47:38.124Z,20.27
2022-12-01T05:50:48.191Z,21.13
2022-12-01T05:53:19.470Z,20.70
2022-12-01T05:55:46.777Z,22.93
2022-12-01T05:58:16.747Z,21.63
2022-12-01T06:00:45.975Z,25.23
2022-12-01T06:03:14.506Z,25.07
2022-12-01T06:06:26.499Z,26.80
2022-12-01T06:08:54.757Z,23.83
2022-12-01T06:11:29.629Z,25.43
2022-12-01T06:16:53.055Z,27.77
2022-12-01T06:19:54.086Z,28.00
2022-12-01T06:22:31.621Z,29.63
2022-12-01T06:31:53.673Z,28.97
2022-12-01T06:34:54.002Z,27.50
2022-12-01T06:37:21.277Z,29.53
2022-12-01T06:39:54.629Z,26.20
2022-12-01T06:42:21.870Z,30.20
2022-12-01T06:44:49.051Z,34.50
2022-12-01T06:47:24.338Z,30.97
2022-12-01T06:49:51.895Z,30.40
2022-12-01T06:52:37.888Z,27.53
2022-12-01T06:55:19.975Z,28.30
2022-12-01T07:04:05.588Z,29.50
2022-12-01T07:06:32.959Z,29.33
2022-12-01T07:09:02.366Z,28.00
2022-12-01T07:11:47.915Z,28.17
2022-12-01T07:14:23.415Z,28.73
2022-12-01T07:16:51.188Z,30.47
2022-12-01T07:22:21.381Z,32.50
2022-12-01T07:24:48.495Z,28.97
2022-12-01T07:27:18.529Z,25.87
2022-12-01T07:29:51.577Z,25.40
2022-12-01T07:32:19.888Z,26.10
2022-12-01T07:34:47.085Z,25.67
2022-12-01T07:37:28.063Z,26.77
2022-12-01T07:42:51.896Z,29.97
2022-12-01T07:45:25.056Z,29.70
2022-12-01T07:55:52.331Z,26.43
2022-12-01T07:58:19.441Z,22.67
2022-12-01T08:00:54.879Z,23.37
2022-12-01T08:03:26.981Z,25.03
2022-12-01T08:06:02.032Z,26.40
2022-12-01T08:08:30.464Z,23.50
2022-12-01T08:11:01.681Z,22.90
2022-12-01T08:13:29.626Z,26.20
2022-12-01T08:15:56.858Z,21.47
2022-12-01T08:18:24.616Z,23.13
2022-12-01T08:20:52.004Z,20.33
2022-12-01T08:23:19.046Z,20.27
2022-12-01T08:25:46.297Z,23.53
2022-12-01T08:28:13.421Z,22.60
2022-12-01T08:30:40.460Z,21.60
2022-12-01T08:33:08.673Z,22.33
2022-12-01T08:35:36.948Z,21.47
2022-12-01T08:41:28.565Z,22.03
2022-12-01T08:43:58.698Z,23.60
2022-12-01T08:46:29.059Z,25.17
2022-12-01T08:48:57.856Z,23.73
2022-12-01T08:51:26.036Z,24.50
2022-12-01T08:54:14.483Z,20.87
2022-12-01T08:59:40.672Z,21.80
2022-12-01T09:02:22.433Z,22.33
2022-12-01T09:04:57.589Z,20.87
2022-12-01T09:07:35.091Z,20.83
2022-12-01T09:10:02.365Z,21.90
2022-12-01T09:12:30.326Z,21.43
2022-12-01T09:15:15.856Z,21.83
2022-12-01T09:20:27.360Z,22.77
2022-12-01T09:22:54.540Z,25.53
2022-12-01T09:25:21.623Z,22.83
2022-12-01T09:27:57.951Z,22.73
2022-12-01T09:30:25.119Z,25.00
2022-12-01T09:32:52.193Z,25.27
2022-12-01T09:35:23.224Z,26.47
2022-12-01T09:37:50.994Z,29.20
2022-12-01T09:40:18.250Z,29.30
2022-12-01T09:43:00.416Z,28.03
2022-12-01T09:45:31.798Z,29.77
2022-12-01T09:48:31.174Z,27.63
2022-12-01T09:50:58.552Z,29.07
2022-12-01T09:53:28.956Z,26.80
2022-12-01T09:56:12.741Z,27.23
2022-12-01T09:58:40.458Z,27.97
2022-12-01T10:01:17.539Z,27.27
2022-12-01T10:03:57.771Z,28.50
2022-12-01T10:06:42.959Z,25.97
2022-12-01T10:09:22.695Z,29.77
2022-12-01T10:12:16.470Z,28.57
2022-12-01T10:14:46.322Z,27.47
2022-12-01T10:17:19.564Z,29.43
2022-12-01T10:20:22.054Z,27.70
2022-12-01T10:23:10.578Z,30.70
2022-12-01T10:25:58.579Z,28.87
2022-12-01T10:28:44.658Z,31.13
2022-12-01T10:31:21.131Z,29.87
2022-12-01T10:34:01.897Z,30.13
2022-12-01T10:36:32.178Z,31.30
2022-12-01T10:39:00.425Z,32.67
2022-12-01T10:41:33.878Z,33.87
2022-12-01T10:44:05.530Z,32.60
2022-12-01T10:46:35.584Z,27.50
2022-12-01T10:49:10.130Z,32.03
2022-12-01T10:52:01.343Z,33.50
2022-12-01T10:54:46.540Z,32.40
2022-12-01T10:57:17.725Z,29.60
2022-12-01T10:59:48.151Z,28.73
2022-12-01T11:02:20.440Z,29.67
2022-12-01T11:05:19.316Z,29.07
2022-12-01T11:07:47.663Z,28.33
2022-12-01T11:10:28.763Z,31.87
2022-12-01T11:13:05.453Z,29.70
2022-12-01T11:15:38.239Z,30.17
2022-12-01T11:18:20.577Z,30.40
2022-12-01T11:20:48.626Z,28.43
2022-12-01T11:23:48.391Z,29.80
2022-12-01T11:26:34.628Z,27.43
2022-12-01T11:29:35.981Z,30.67
2022-12-01T11:32:26.370Z,28.30
2022-12-01T11:35:21.746Z,28.27
2022-12-01T11:38:27.229Z,28.87
2022-12-01T11:40:49.671Z,25.53
2022-12-01T11:43:37.366Z,28.80
2022-12-01T11:46:10.077Z,26.80
2022-12-01T11:48:38.068Z,26.50
2022-12-01T11:51:27.221Z,28.97
2022-12-01T11:54:17.485Z,27.80
2022-12-01T11:57:17.325Z,28.20
2022-12-01T11:59:41.140Z,24.83
2022-12-01T12:02:22.544Z,24.23
2022-12-01T12:05:39.551Z,26.30
2022-12-01T12:08:12.182Z,25.13
2022-12-01T12:14:19.386Z,22.93
2022-12-01T12:17:01.395Z,27.20
2022-12-01T12:20:08.220Z,24.27
2022-12-01T12:22:42.055Z,24.77
2022-12-01T12:25:52.075Z,26.03
2022-12-01T12:28:59.572Z,27.23
2022-12-01T12:31:48.334Z,26.23
2022-12-01T12:34:38.221Z,24.47
2022-12-01T12:37:36.861Z,27.73
2022-12-01T12:40:25.593Z,26.93
2022-12-01T12:43:11.430Z,23.87
2022-12-01T12:46:00.815Z,24.07
2022-12-01T12:49:03.443Z,25.73
2022-12-01T12:51:39.187Z,26.77
2022-12-01T12:54:34.705Z,21.27
2022-12-01T12:57:28.385Z,20.20
2022-12-01T13:00:18.117Z,23.03
2022-12-01T13:02:50.801Z,21.83
2022-12-01T13:05:23.860Z,24.03
2022-12-01T13:08:32.300Z,22.20
2022-12-01T13:11:02.548Z,21.50
2022-12-01T13:13:48.521Z,21.87
2022-12-01T13:16:26.237Z,22.83
2022-12-01T13:19:03.154Z,23.97
2022-12-01T13:21:37.523Z,22.53
2022-12-01T13:24:27.904Z,21.33
2022-12-01T13:27:01.200Z,25.80
2022-12-01T13:29:34.497Z,24.37
2022-12-01T13:32:02.607Z,25.27
2022-12-01T13:34:42.628Z,24.83
2022-12-01T13:37:10.994Z,26.80
2022-12-01T13:39:44.894Z,28.37
2022-12-01T13:42:28.004Z,29.37
2022-12-01T13:45:01.738Z,30.00
2022-12-01T13:47:47.292Z,28.57
2022-12-01T13:50:46.060Z,30.03
2022-12-01T13:53:17.065Z,28.23
2022-12-01T13:56:03.757Z,29.10
2022-12-01T13:58:33.731Z,26.57
2022-12-01T14:01:19.862Z,28.87
2022-12-01T14:04:02.428Z,27.80
2022-12-01T14:06:46.630Z,31.17
2022-12-01T14:09:31.783Z,29.03
2022-12-01T14:12:06.600Z,30.67
2022-12-01T14:14:40.146Z,32.77
2022-12-01T14:17:25.017Z,28.07
2022-12-01T14:19:53.277Z,28.37
2022-12-01T14:22:46.527Z,28.33
2022-12-01T14:25:23.129Z,30.40
2022-12-01T14:27:53.245Z,29.17
2022-12-01T14:31:16.991Z,32.47
2022-12-01T14:34:00.231Z,31.37
2022-12-01T14:36:36.856Z,33.67
2022-12-01T14:39:21.693Z,33.70
2022-12-01T14:42:12.585Z,30.53
2022-12-01T14:44:49.092Z,34.00
2022-12-01T14:47:23.623Z,35.40
2022-12-01T14:49:59.701Z,33.33
2022-12-01T14:52:26.701Z,36.87
2022-12-01T14:54:57.328Z,33.73
2022-12-01T14:57:38.287Z,34.17
2022-12-01T15:00:14.667Z,31.33
2022-12-01T15:02:47.492Z,30.23
2022-12-01T15:05:19.955Z,29.83
2022-12-01T15:07:50.063Z,28.63
2022-12-01T15:10:34.614Z,31.57
2022-12-01T15:13:41.012Z,28.33
2022-12-01T15:16:17.915Z,32.20
2022-12-01T15:18:48.736Z,29.27
2022-12-01T15:21:32.334Z,31.40
2022-12-01T15:24:02.940Z,30.50
2022-12-01T15:26:33.329Z,28.13
2022-12-01T15:29:28.183Z,31.43
2022-12-01T15:32:06.913Z,32.07
2022-12-01T15:34:40.280Z,31.77
2022-12-01T15:37:25.299Z,34.60
2022-12-01T15:43:03.294Z,33.20
2022-12-01T15:45:41.231Z,31.13
2022-12-01T15:48:17.829Z,33.00
2022-12-01T15:50:58.909Z,31.30
2022-12-01T15:53:29.749Z,30.63
2022-12-01T15:55:59.294Z,31.90
2022-12-01T15:58:30.468Z,31.27
2022-12-01T16:01:31.557Z,28.63
2022-12-01T16:04:05.745Z,31.43
2022-12-01T16:25:43.393Z,34.40
2022-12-01T16:28:24.168Z,37.47
2022-12-01T16:30:52.818Z,31.40
2022-12-01T16:33:23.483Z,33.70
2022-12-01T16:35:53.991Z,34.87
2022-12-01T16:38:23.921Z,35.33
2022-12-01T16:40:53.475Z,37.03
2022-12-01T16:43:30.039Z,33.40
2022-12-01T16:46:09.366Z,32.60
2022-12-01T16:48:37.693Z,33.37
2022-12-01T16:51:07.770Z,34.67
2022-12-01T16:53:34.916Z,35.43
2022-12-01T16:56:03.467Z,34.10
2022-12-01T16:58:30.913Z,33.07
2022-12-01T17:01:16.675Z,31.77
2022-12-01T17:03:43.811Z,32.13
2022-12-01T17:11:51.011Z,34.80
2022-12-01T17:17:04.708Z,31.07
2022-12-01T17:19:31.823Z,33.50
2022-12-01T17:22:07.040Z,34.57
2022-12-01T17:24:34.096Z,37.37
2022-12-01T17:27:07.342Z,33.40
2022-12-01T17:29:51.846Z,34.93
2022-12-01T17:32:37.225Z,33.77
2022-12-01T17:35:04.931Z,34.37
2022-12-01T17:37:32.136Z,33.37
2022-12-01T17:39:59.230Z,40.47
2022-12-01T17:42:32.912Z,36.30
2022-12-01T17:45:00.585Z,33.33
2022-12-01T17:47:46.460Z,31.57
2022-12-01T17:50:32.034Z,33.13
2022-12-01T17:52:59.144Z,34.33
2022-12-01T17:55:26.279Z,41.27
2022-12-01T17:57:53.450Z,38.50
2022-12-01T18:00:21.299Z,33.57
2022-12-01T18:02:50.697Z,41.13
2022-12-01T18:05:18.038Z,44.70
2022-12-01T18:07:45.417Z,32.43
2022-12-01T18:10:12.618Z,35.27
2022-12-01T18:12:39.836Z,31.93
2022-12-01T18:15:07.390Z,39.40
2022-12-01T18:17:40.405Z,36.13
2022-12-01T18:20:08.389Z,32.60
2022-12-01T18:22:35.497Z,35.20
2022-12-01T18:25:02.794Z,36.87
2022-12-01T18:27:29.877Z,31.63
2022-12-01T18:30:09.898Z,30.80
2022-12-01T18:32:37.150Z,34.00
2022-12-01T18:35:04.681Z,41.70
2022-12-01T18:37:31.860Z,38.10
2022-12-01T18:39:58.966Z,38.40
2022-12-01T18:42:26.078Z,32.67
2022-12-01T18:44:53.307Z,31.40
2022-12-01T18:47:38.742Z,36.93
2022-12-01T18:50:06.573Z,28.37
2022-12-01T18:52:37.905Z,30.93
2022-12-01T18:55:05.341Z,31.23
2022-12-01T18:57:32.535Z,28.60
2022-12-01T18:59:59.877Z,30.50
2022-12-01T19:02:33.212Z,29.47
2022-12-01T19:05:00.368Z,39.53
2022-12-01T19:08:02.865Z,27.60
2022-12-01T19:10:30.034Z,33.93
2022-12-01T19:13:00.463Z,28.30
2022-12-01T19:21:41.081Z,25.37
2022-12-01T19:27:12.102Z,25.67
2022-12-01T19:32:58.106Z,27.30
2022-12-01T19:41:38.907Z,24.87
2022-12-01T19:48:18.770Z,27.07
2022-12-01T19:54:33.072Z,27.47
2022-12-01T19:57:00.420Z,26.60
2022-12-01T19:59:28.108Z,27.17
2022-12-01T20:01:56.086Z,24.63
2022-12-01T20:04:24.342Z,24.47
2022-12-01T20:06:51.702Z,23.10
2022-12-01T20:09:21.386Z,23.43
2022-12-01T20:11:51.760Z,22.47
2022-12-01T20:14:31.227Z,23.50
2022-12-01T20:16:58.844Z,24.70
2022-12-01T20:19:32.700Z,20.13
2022-12-01T20:22:00.066Z,21.20
2022-12-01T20:24:30.734Z,22.53
2022-12-01T20:27:00.470Z,22.17
2022-12-01T20:29:37.477Z,22.30
2022-12-01T20:32:22.078Z,22.23
2022-12-01T20:35:08.359Z,21.33
2022-12-01T20:37:35.856Z,21.00
2022-12-01T20:43:44.786Z,21.80
2022-12-01T20:46:31.573Z,19.47
2022-12-01T20:48:59.248Z,19.43
2022-12-01T20:51:26.872Z,19.73
2022-12-01T20:54:30.082Z,20.33
2022-12-01T20:56:58.721Z,19.67
2022-12-01T20:59:27.084Z,18.10
2022-12-01T21:01:57.613Z,19.03
2022-12-01T21:04:25.158Z,19.03
2022-12-01T21:06:59.817Z,19.73
2022-12-01T21:09:29.222Z,18.63
2022-12-01T21:12:44.917Z,19.13
2022-12-01T21:15:29.979Z,18.57
2022-12-01T21:18:29.266Z,14.93
2022-12-01T21:21:53.236Z,19.20
2022-12-01T21:24:22.541Z,19.27
2022-12-01T21:26:54.761Z,18.67
2022-12-01T21:29:38.463Z,20.20
2022-12-01T21:32:31.963Z,21.77
2022-12-01T21:38:11.345Z,20.27
2022-12-01T21:40:43.198Z,22.13
2022-12-01T21:43:43.254Z,23.10
2022-12-01T21:46:18.851Z,21.10
2022-12-01T21:48:49.954Z,22.40
2022-12-01T21:51:23.305Z,22.00
2022-12-01T21:54:02.773Z,21.53
2022-12-01T21:56:31.734Z,19.77
2022-12-01T22:03:00.316Z,21.73
2022-12-01T22:05:33.480Z,22.23
2022-12-01T22:08:32.318Z,23.07
2022-12-01T22:10:59.442Z,22.00
2022-12-01T22:13:40.651Z,22.17
2022-12-01T22:16:34.379Z,18.33
2022-12-01T22:19:20.850Z,22.93
2022-12-01T22:21:50.192Z,21.20
2022-12-01T22:24:44.097Z,22.40
2022-12-01T22:27:43.269Z,21.93
2022-12-01T22:30:16.667Z,20.23
2022-12-01T22:32:56.516Z,19.80
2022-12-01T22:35:48.415Z,20.07
2022-12-01T22:38:23.517Z,24.73
2022-12-01T22:41:00.841Z,14.53
2022-12-01T22:43:48.411Z,24.37
2022-12-01T22:46:23.009Z,24.50
2022-12-01T22:48:58.112Z,24.47
2022-12-01T22:51:31.659Z,17.00
2022-12-01T22:57:25.230Z,21.80
2022-12-01T22:59:53.185Z,23.50
2022-12-01T23:02:24.846Z,24.13
2022-12-01T23:04:56.916Z,19.23
2022-12-01T23:07:43.237Z,19.83
2022-12-01T23:10:45.464Z,22.57
2022-12-01T23:16:14.271Z,20.63
2022-12-01T23:18:41.439Z,18.60
2022-12-01T23:21:08.617Z,20.27
2022-12-01T23:23:37.125Z,22.47
2022-12-01T23:26:07.377Z,17.30
2022-12-01T23:28:39.026Z,18.77
2022-12-01T23:31:06.312Z,22.27
2022-12-01T23:33:34.872Z,22.83
2022-12-01T23:36:21.518Z,19.27
2022-12-01T23:38:55.214Z,22.97
2022-12-01T23:41:39.000Z,20.07
2022-12-01T23:44:35.300Z,21.80
2022-12-01T23:47:03.355Z,16.70
2022-12-01T23:49:34.449Z,17.13
2022-12-01T23:52:03.741Z,17.70
2022-12-01T23:54:33.229Z,19.03
2022-12-01T23:57:16.567Z,15.73
